Time;durP1;ratioP1;P1;durP2;ratioP2;P2;SDS_P1;SDS_P2;PMS_P1;PMS_P2;Temp;Humidity;BMP_temperature;BMP_pressure;BME280_temperature;BME280_humidity;BME280_pressure;Samples;Min_cycle;Max_cycle;Signal;HPM_P1;HPM_P2
2023/09/08 00:02:18;;;;;;;6.00;5.50;;;27.70;45.90;;;;;;5001271;28;20452;-49
2023/09/08 00:04:44;;;;;;;6.00;5.50;;;27.70;45.90;;;;;;5006524;28;20480;-47
2023/09/08 00:07:09;;;;;;;8.00;6.50;;;27.60;45.80;;;;;;5005621;28;20206;-50
2023/09/08 00:09:35;;;;;;;5.43;5.03;;;27.60;45.70;;;;;;5010984;28;20641;-46
2023/09/08 00:12:01;;;;;;;5.70;5.20;;;27.60;45.80;;;;;;5014360;28;20654;-46
2023/09/08 00:14:27;;;;;;;6.23;5.63;;;27.50;45.90;;;;;;5008163;28;20201;-48
2023/09/08 00:16:55;;;;;;;6.63;5.70;;;27.60;45.90;;;;;;5013146;28;20193;-49
2023/09/08 00:19:22;;;;;;;6.23;5.63;;;27.50;45.90;;;;;;5014856;28;20197;-51
2023/09/08 00:21:49;;;;;;;5.90;5.30;;;27.40;46.00;;;;;;5013095;28;21058;-47
2023/09/08 00:24:14;;;;;;;5.60;5.20;;;27.40;46.10;;;;;;5009867;28;20459;-50
2023/09/08 00:26:40;;;;;;;6.43;5.80;;;27.40;46.00;;;;;;5009027;28;20480;-48
2023/09/08 00:29:06;;;;;;;6.93;5.67;;;27.30;46.20;;;;;;5009234;28;20203;-47
2023/09/08 00:31:31;;;;;;;5.63;5.23;;;27.30;46.30;;;;;;5011573;28;20197;-47
2023/09/08 00:33:57;;;;;;;6.27;5.13;;;27.30;46.20;;;;;;5011725;28;20198;-46
2023/09/08 00:36:22;;;;;;;5.57;5.07;;;27.30;46.10;;;;;;5017526;28;20217;-46
2023/09/08 00:38:48;;;;;;;5.90;5.30;;;27.20;46.20;;;;;;5015012;28;20198;-46
2023/09/08 00:41:13;;;;;;;6.43;5.83;;;27.20;46.40;;;;;;5011098;28;20194;-46
2023/09/08 00:43:39;;;;;;;6.37;5.77;;;27.20;46.30;;;;;;5015464;28;20216;-47
2023/09/08 00:46:06;;;;;;;6.23;5.57;;;27.20;46.20;;;;;;5016521;28;20251;-46
2023/09/08 00:48:34;;;;;;;6.03;5.53;;;27.20;46.30;;;;;;5015634;28;20237;-46
2023/09/08 00:50:59;;;;;;;5.17;4.77;;;27.10;46.30;;;;;;5014637;28;20980;-46
2023/09/08 00:53:25;;;;;;;6.13;4.90;;;27.10;46.40;;;;;;5014834;28;20495;-47
2023/09/08 00:55:52;;;;;;;6.30;5.60;;;27.10;46.40;;;;;;5014395;28;20190;-46
2023/09/08 00:58:17;;;;;;;5.90;5.40;;;27.10;46.30;;;;;;5015198;28;20232;-46
2023/09/08 01:00:44;;;;;;;6.03;5.50;;;27.10;46.40;;;;;;5013476;28;20487;-46
2023/09/08 01:03:11;;;;;;;5.87;5.43;;;27.10;46.40;;;;;;5016993;28;20210;-47
2023/09/08 01:05:36;;;;;;;9.03;6.00;;;27.10;46.40;;;;;;5015485;28;20480;-46
2023/09/08 01:08:03;;;;;;;5.90;5.50;;;27.10;46.40;;;;;;5015860;28;21017;-48
2023/09/08 01:10:29;;;;;;;7.00;5.83;;;27.10;46.40;;;;;;5006660;28;20190;-47
2023/09/08 01:12:54;;;;;;;6.57;5.97;;;27.10;46.40;;;;;;5014926;28;20444;-47
2023/09/08 01:15:20;;;;;;;5.80;5.23;;;27.10;46.20;;;;;;5016404;28;20225;-48
2023/09/08 01:17:45;;;;;;;6.37;5.77;;;27.00;46.30;;;;;;5014814;28;20186;-46
2023/09/08 01:20:22;;;;;;;5.90;5.40;;;27.00;46.40;;;;;;5015350;28;20572;-48
2023/09/08 01:23:10;;;;;;;6.37;5.80;;;27.00;46.50;;;;;;5009747;28;20205;-47
2023/09/08 01:26:01;;;;;;;6.53;6.03;;;27.00;46.50;;;;;;5009318;28;20487;-47
2023/09/08 01:28:27;;;;;;;6.00;5.50;;;27.00;46.50;;;;;;5007365;28;20575;-46
2023/09/08 01:30:55;;;;;;;6.27;5.70;;;26.90;46.50;;;;;;5010428;28;20476;-48
2023/09/08 01:33:22;;;;;;;6.70;6.10;;;26.80;46.50;;;;;;5009659;28;20449;-47
2023/09/08 01:35:48;;;;;;;5.80;5.17;;;26.80;46.60;;;;;;5011990;28;20451;-47
2023/09/08 01:38:14;;;;;;;6.10;5.50;;;26.80;46.80;;;;;;5010437;28;20444;-46
2023/09/08 01:40:39;;;;;;;5.77;5.30;;;26.80;46.80;;;;;;5009155;28;20445;-46
2023/09/08 01:43:05;;;;;;;6.10;5.50;;;26.80;46.80;;;;;;5007232;28;20225;-47
2023/09/08 01:45:31;;;;;;;6.13;5.63;;;26.80;46.80;;;;;;5008783;28;20711;-46
2023/09/08 01:47:56;;;;;;;6.93;5.47;;;26.80;47.40;;;;;;5009097;28;20626;-46
2023/09/08 01:50:24;;;;;;;5.67;5.17;;;26.80;46.80;;;;;;5009750;28;20221;-50
2023/09/08 01:52:49;;;;;;;6.03;5.53;;;26.80;46.80;;;;;;5009888;28;20202;-47
2023/09/08 01:55:16;;;;;;;6.23;5.63;;;26.80;46.80;;;;;;5011576;28;20453;-48
2023/09/08 01:57:42;;;;;;;5.80;5.40;;;26.80;46.70;;;;;;5012392;28;20194;-47
2023/09/08 02:00:11;;;;;;;7.60;6.37;;;26.80;46.70;;;;;;5011174;28;20441;-47
2023/09/08 02:02:36;;;;;;;6.13;5.63;;;26.80;46.60;;;;;;5010130;28;20445;-47
2023/09/08 02:05:02;;;;;;;5.77;5.17;;;26.70;46.60;;;;;;5010620;28;20975;-46
2023/09/08 02:07:27;;;;;;;6.07;5.47;;;26.70;46.70;;;;;;5009296;28;20676;-47
2023/09/08 02:09:53;;;;;;;6.03;5.53;;;26.70;46.70;;;;;;5010150;28;20660;-47
2023/09/08 02:12:18;;;;;;;6.90;5.27;;;26.70;46.70;;;;;;5008235;28;20190;-47
2023/09/08 02:14:44;;;;;;;5.70;5.03;;;26.70;46.70;;;;;;5009304;28;20209;-46
2023/09/08 02:17:10;;;;;;;5.90;5.40;;;26.70;46.70;;;;;;5009261;28;20717;-47
2023/09/08 02:19:35;;;;;;;5.60;5.10;;;26.60;46.70;;;;;;5010006;28;20268;-47
2023/09/08 02:22:01;;;;;;;9.47;5.57;;;26.60;46.70;;;;;;5009185;28;20201;-47
2023/09/08 02:24:27;;;;;;;5.80;5.30;;;26.60;46.70;;;;;;5009077;28;20676;-47
2023/09/08 02:26:53;;;;;;;9.43;6.17;;;26.60;46.70;;;;;;5005598;28;20229;-47
2023/09/08 02:29:18;;;;;;;6.27;5.67;;;26.60;46.70;;;;;;5011417;28;20190;-47
2023/09/08 02:31:44;;;;;;;5.90;5.43;;;26.50;46.80;;;;;;5006264;28;20947;-47
2023/09/08 02:34:12;;;;;;;6.20;5.60;;;26.60;46.80;;;;;;5008302;28;20189;-47
2023/09/08 02:36:38;;;;;;;6.80;6.13;;;26.50;46.80;;;;;;5009927;28;20472;-46
2023/09/08 02:39:03;;;;;;;5.30;4.83;;;26.50;46.80;;;;;;5008987;28;20464;-48
2023/09/08 02:41:29;;;;;;;6.33;5.83;;;26.50;46.80;;;;;;5011364;28;20575;-47
2023/09/08 02:43:55;;;;;;;6.20;5.70;;;26.50;46.80;;;;;;5007136;28;20190;-46
2023/09/08 02:46:20;;;;;;;7.17;5.23;;;26.50;46.80;;;;;;5010265;28;20252;-47
2023/09/08 02:48:46;;;;;;;5.77;5.33;;;26.40;46.70;;;;;;5007696;28;20328;-46
2023/09/08 02:51:12;;;;;;;5.50;5.10;;;26.40;46.70;;;;;;5009310;28;20299;-46
2023/09/08 02:53:37;;;;;;;6.10;5.60;;;26.40;46.80;;;;;;5009949;28;20206;-45
2023/09/08 02:56:05;;;;;;;6.10;5.60;;;26.30;46.80;;;;;;5010616;28;20190;-47
2023/09/08 02:58:33;;;;;;;5.67;5.27;;;26.30;46.80;;;;;;5012264;28;20201;-46
2023/09/08 03:01:13;;;;;;;7.37;5.33;;;26.20;47.00;;;;;;5010594;28;20936;-48
2023/09/08 03:03:42;;;;;;;5.70;5.20;;;26.30;47.10;;;;;;5005575;28;20511;-46
2023/09/08 03:06:09;;;;;;;6.17;5.67;;;26.20;47.10;;;;;;5011235;28;20575;-47
2023/09/08 03:08:36;;;;;;;5.80;5.30;;;26.20;47.00;;;;;;5011344;28;20449;-46
2023/09/08 03:11:04;;;;;;;5.60;5.10;;;26.20;47.10;;;;;;5004908;28;20783;-47
2023/09/08 03:13:30;;;;;;;7.20;5.67;;;26.20;46.90;;;;;;5012209;28;20445;-47
2023/09/08 03:15:56;;;;;;;5.97;5.43;;;26.20;46.90;;;;;;5010410;28;20448;-47
2023/09/08 03:18:22;;;;;;;6.13;5.40;;;26.20;47.00;;;;;;5007894;28;20281;-46
2023/09/08 03:20:50;;;;;;;7.53;5.70;;;26.20;47.00;;;;;;5003389;28;20451;-45
2023/09/08 03:23:16;;;;;;;5.43;4.93;;;26.10;46.90;;;;;;5004523;28;20814;-46
2023/09/08 03:25:42;;;;;;;6.17;5.60;;;26.10;47.10;;;;;;5007485;28;20501;-45
2023/09/08 03:28:07;;;;;;;6.00;5.40;;;26.10;47.20;;;;;;5009006;28;20449;-46
2023/09/08 03:30:33;;;;;;;6.37;5.77;;;26.00;47.10;;;;;;5007171;28;20460;-45
2023/09/08 03:32:58;;;;;;;6.17;5.67;;;26.10;47.20;;;;;;5006600;28;20559;-46
2023/09/08 03:35:24;;;;;;;6.10;5.60;;;26.00;47.10;;;;;;5001868;28;20202;-45
2023/09/08 03:37:49;;;;;;;6.17;5.67;;;26.00;47.20;;;;;;5008041;28;20194;-46
2023/09/08 03:40:15;;;;;;;6.20;5.60;;;26.00;47.20;;;;;;5005782;28;20214;-49
2023/09/08 03:42:42;;;;;;;6.40;5.90;;;26.00;47.40;;;;;;5005265;28;20198;-47
2023/09/08 03:45:08;;;;;;;5.77;5.27;;;25.90;47.40;;;;;;5007215;28;20186;-46
2023/09/08 03:47:33;;;;;;;6.33;5.80;;;25.90;47.40;;;;;;5008718;28;20962;-46
2023/09/08 03:49:59;;;;;;;5.43;4.97;;;25.90;47.50;;;;;;5002254;28;20444;-48
2023/09/08 03:52:25;;;;;;;5.90;5.43;;;25.90;47.40;;;;;;5003667;28;20234;-47
2023/09/08 03:54:50;;;;;;;8.13;6.17;;;25.90;47.30;;;;;;5008840;28;20650;-46
2023/09/08 03:57:16;;;;;;;6.20;5.60;;;25.90;47.20;;;;;;5007697;28;20888;-49
2023/09/08 03:59:41;;;;;;;6.43;5.60;;;25.90;47.10;;;;;;5008673;28;20190;-46
2023/09/08 04:02:07;;;;;;;8.00;5.50;;;25.80;47.40;;;;;;5009015;28;20202;-47
2023/09/08 04:04:32;;;;;;;6.50;6.00;;;25.80;47.50;;;;;;5008671;28;20229;-46
2023/09/08 04:06:58;;;;;;;6.00;5.20;;;25.70;47.60;;;;;;5009567;28;20229;-45
2023/09/08 04:09:24;;;;;;;6.80;6.20;;;25.70;47.60;;;;;;5010583;28;20209;-50
2023/09/08 04:11:49;;;;;;;5.93;5.33;;;25.70;47.60;;;;;;5002891;28;20195;-46
2023/09/08 04:14:15;;;;;;;6.10;5.60;;;25.70;47.70;;;;;;5003993;28;20265;-48
2023/09/08 04:16:40;;;;;;;6.20;5.60;;;25.70;47.80;;;;;;5004117;28;20256;-47
2023/09/08 04:19:06;;;;;;;6.17;5.60;;;25.60;47.80;;;;;;5008139;28;20205;-46
2023/09/08 04:21:31;;;;;;;7.93;5.90;;;25.60;47.80;;;;;;5008796;28;20194;-47
2023/09/08 04:24:02;;;;;;;5.60;5.10;;;25.60;47.80;;;;;;5006157;28;20214;-47
2023/09/08 04:26:28;;;;;;;6.60;6.03;;;25.60;47.80;;;;;;5003987;28;20230;-44
2023/09/08 04:28:53;;;;;;;6.53;6.03;;;25.60;47.80;;;;;;5008686;28;20439;-46
2023/09/08 04:31:19;;;;;;;6.80;6.10;;;25.60;47.80;;;;;;5002603;28;20198;-47
2023/09/08 04:33:45;;;;;;;8.80;6.40;;;25.60;47.80;;;;;;5006801;28;20537;-46
2023/09/08 04:36:11;;;;;;;6.33;5.73;;;25.60;47.90;;;;;;5011416;28;20676;-44
2023/09/08 04:38:36;;;;;;;5.77;5.27;;;25.60;47.90;;;;;;5005212;28;20232;-48
2023/09/08 04:41:02;;;;;;;6.63;6.03;;;25.60;47.80;;;;;;5009698;28;20248;-46
2023/09/08 04:43:27;;;;;;;6.40;5.80;;;25.60;47.90;;;;;;5011719;28;20277;-47
2023/09/08 04:45:53;;;;;;;5.33;4.93;;;25.50;47.80;;;;;;5008434;28;20225;-47
2023/09/08 04:48:18;;;;;;;6.63;6.03;;;25.50;47.90;;;;;;5006298;28;20562;-46
2023/09/08 04:50:44;;;;;;;5.80;5.27;;;25.50;47.90;;;;;;5010041;28;20234;-46
2023/09/08 04:53:10;;;;;;;6.37;5.87;;;25.50;47.90;;;;;;5006837;28;20197;-46
2023/09/08 04:55:36;;;;;;;6.60;5.97;;;25.50;47.90;;;;;;5008746;28;20670;-50
2023/09/08 04:58:02;;;;;;;6.20;5.70;;;25.40;47.90;;;;;;5011538;28;20448;-47
2023/09/08 05:00:28;;;;;;;6.60;5.97;;;25.40;48.00;;;;;;5009222;28;20191;-43
2023/09/08 05:02:53;;;;;;;6.27;5.67;;;25.40;48.00;;;;;;5011794;28;20232;-43
2023/09/08 05:05:19;;;;;;;6.63;5.90;;;25.40;48.10;;;;;;5001578;28;20240;-45
2023/09/08 05:07:45;;;;;;;6.00;5.50;;;25.40;48.10;;;;;;5011504;28;20193;-46
2023/09/08 05:10:11;;;;;;;5.70;5.20;;;25.40;48.10;;;;;;5007342;28;20277;-47
2023/09/08 05:12:36;;;;;;;8.53;6.70;;;25.40;48.00;;;;;;5011567;28;20524;-45
2023/09/08 05:15:06;;;;;;;7.30;5.50;;;25.30;48.00;;;;;;5014200;28;20605;-48
2023/09/08 05:17:32;;;;;;;7.03;6.20;;;25.30;48.10;;;;;;5014472;28;20198;-45
2023/09/08 05:19:58;;;;;;;6.60;6.10;;;25.30;48.00;;;;;;5003152;28;20973;-44
2023/09/08 05:22:23;;;;;;;6.87;6.27;;;25.40;48.00;;;;;;5006432;28;20260;-45
2023/09/08 05:24:49;;;;;;;6.93;6.30;;;25.30;47.90;;;;;;5009255;28;20796;-44
2023/09/08 05:27:14;;;;;;;7.13;6.53;;;25.30;47.90;;;;;;5013047;28;20261;-48
2023/09/08 05:29:40;;;;;;;6.60;6.00;;;25.30;47.90;;;;;;5007474;28;20201;-46
2023/09/08 05:32:06;;;;;;;5.70;5.20;;;25.30;48.00;;;;;;4999247;28;20194;-46
2023/09/08 05:34:31;;;;;;;6.67;6.10;;;25.30;48.00;;;;;;5005074;28;20255;-47
2023/09/08 05:36:57;;;;;;;7.33;6.13;;;25.30;48.00;;;;;;5004557;28;20236;-45
2023/09/08 05:39:22;;;;;;;6.70;6.00;;;25.30;48.10;;;;;;5008657;28;20209;-48
2023/09/08 05:41:48;;;;;;;7.17;6.00;;;25.30;48.00;;;;;;5003571;28;20214;-45
2023/09/08 05:44:14;;;;;;;6.17;5.67;;;25.30;48.10;;;;;;5003883;28;20201;-44
2023/09/08 05:46:39;;;;;;;6.63;5.93;;;25.30;48.10;;;;;;5009949;28;20232;-46
2023/09/08 05:49:05;;;;;;;6.40;5.90;;;25.30;48.10;;;;;;5003485;28;20198;-48
2023/09/08 05:51:31;;;;;;;7.50;6.57;;;25.30;48.10;;;;;;5012350;28;20236;-47
2023/09/08 05:53:56;;;;;;;6.10;5.60;;;25.20;48.00;;;;;;5009790;28;20629;-46
2023/09/08 05:56:29;;;;;;;8.03;7.33;;;25.20;48.30;;;;;;5010060;28;20436;-48
2023/09/08 05:58:54;;;;;;;8.50;7.70;;;25.10;48.20;;;;;;5008172;28;20272;-48
2023/09/08 06:01:20;;;;;;;7.87;6.43;;;24.40;49.40;;;;;;5003279;28;21025;-44
2023/09/08 06:03:46;;;;;;;8.53;7.83;;;23.80;50.60;;;;;;5009865;28;20189;-45
2023/09/08 06:06:11;;;;;;;10.10;7.53;;;23.50;51.80;;;;;;5010223;28;20234;-44
2023/09/08 06:08:37;;;;;;;8.97;7.33;;;23.50;51.80;;;;;;5007355;28;20194;-44
2023/09/08 06:11:02;;;;;;;12.37;7.77;;;23.50;52.10;;;;;;5005523;28;20667;-45
2023/09/08 06:13:28;;;;;;;9.13;8.17;;;23.00;53.00;;;;;;5006977;28;20198;-48
2023/09/08 06:15:53;;;;;;;7.70;6.87;;;22.90;53.70;;;;;;5010228;28;20189;-48
2023/09/08 06:18:19;;;;;;;7.43;6.77;;;22.90;53.70;;;;;;5007726;28;20194;-45
2023/09/08 06:20:46;;;;;;;7.43;6.83;;;23.00;53.70;;;;;;5006904;28;20190;-44
2023/09/08 06:23:11;;;;;;;8.17;7.40;;;23.00;53.70;;;;;;5013130;28;20182;-48
2023/09/08 06:25:37;;;;;;;8.73;7.83;;;22.70;54.70;;;;;;5014446;28;20468;-47
2023/09/08 06:28:03;;;;;;;8.53;7.57;;;22.00;56.50;;;;;;5012687;28;20281;-43
2023/09/08 06:30:28;;;;;;;8.60;7.63;;;21.60;57.70;;;;;;5013541;28;20197;-44
2023/09/08 06:32:54;;;;;;;8.43;7.70;;;21.60;58.20;;;;;;5014043;28;20197;-47
2023/09/08 06:35:20;;;;;;;8.77;7.33;;;21.90;57.50;;;;;;5014342;28;20198;-47
2023/09/08 06:37:45;;;;;;;7.33;6.60;;;21.90;57.60;;;;;;5012413;28;20669;-44
2023/09/08 06:40:11;;;;;;;8.00;7.23;;;21.90;57.70;;;;;;5008089;28;20253;-43
2023/09/08 06:42:36;;;;;;;8.20;7.50;;;22.10;57.90;;;;;;5004873;28;20194;-44
2023/09/08 06:45:02;;;;;;;7.77;7.03;;;22.40;57.00;;;;;;5014233;28;20189;-45
2023/09/08 06:47:28;;;;;;;8.47;7.63;;;22.70;56.60;;;;;;5011830;28;20194;-44
2023/09/08 06:49:53;;;;;;;8.83;7.87;;;22.90;55.90;;;;;;5014148;28;20646;-47
2023/09/08 06:52:19;;;;;;;7.60;6.63;;;22.90;55.30;;;;;;5011523;28;20238;-46
2023/09/08 06:54:45;;;;;;;8.47;7.70;;;22.50;56.80;;;;;;5008568;28;20273;-47
2023/09/08 06:57:12;;;;;;;8.10;7.40;;;22.80;56.30;;;;;;5014054;28;20642;-43
2023/09/08 06:59:38;;;;;;;8.03;7.33;;;23.10;55.80;;;;;;5013922;28;20437;-44
2023/09/08 07:02:04;;;;;;;7.83;7.13;;;23.40;55.30;;;;;;5013779;28;20467;-44
2023/09/08 07:04:30;;;;;;;8.97;6.83;;;23.60;54.90;;;;;;5011416;28;20803;-45
2023/09/08 07:06:55;;;;;;;8.07;7.10;;;23.70;54.90;;;;;;5005178;28;20536;-45
2023/09/08 07:09:21;;;;;;;7.33;6.67;;;23.90;54.70;;;;;;5007724;28;20579;-47
2023/09/08 07:11:46;;;;;;;7.80;7.10;;;24.00;54.50;;;;;;5004205;28;20269;-44
2023/09/08 07:14:12;;;;;;;8.30;6.40;;;24.30;54.10;;;;;;5013674;28;20257;-44
2023/09/08 07:16:38;;;;;;;7.77;7.07;;;24.40;53.90;;;;;;5013764;28;20200;-47
2023/09/08 07:19:03;;;;;;;8.00;7.30;;;24.60;53.80;;;;;;5012764;28;20208;-46
2023/09/08 07:21:29;;;;;;;8.63;7.10;;;24.70;53.60;;;;;;5010525;28;20294;-43
2023/09/08 07:23:54;;;;;;;6.50;5.97;;;24.80;53.50;;;;;;5012741;28;20204;-44
2023/09/08 07:26:20;;;;;;;7.67;6.97;;;24.80;53.70;;;;;;5002807;28;20228;-44
2023/09/08 07:28:46;;;;;;;7.97;7.20;;;25.00;53.50;;;;;;5009676;28;20190;-45
2023/09/08 07:31:11;;;;;;;6.70;6.20;;;25.10;53.10;;;;;;5013552;28;20194;-43
2023/09/08 07:33:37;;;;;;;8.93;6.70;;;25.10;53.10;;;;;;5013448;28;20665;-47
2023/09/08 07:36:05;;;;;;;9.73;7.37;;;25.30;53.00;;;;;;5011972;28;20241;-44
2023/09/08 07:38:31;;;;;;;7.60;6.80;;;25.40;52.60;;;;;;5004923;28;20443;-46
2023/09/08 07:40:57;;;;;;;7.10;6.40;;;25.20;52.70;;;;;;5011691;28;20515;-46
2023/09/08 07:43:22;;;;;;;7.70;6.97;;;25.00;53.30;;;;;;5013055;28;20202;-43
2023/09/08 07:45:48;;;;;;;7.13;6.50;;;25.10;53.20;;;;;;5012083;28;20284;-45
2023/09/08 07:48:13;;;;;;;6.50;5.90;;;25.30;52.80;;;;;;5012688;28;20189;-46
2023/09/08 07:50:39;;;;;;;7.23;6.40;;;25.40;53.00;;;;;;5011705;28;20201;-44
2023/09/08 07:53:04;;;;;;;7.70;7.00;;;25.40;52.20;;;;;;5011178;28;20553;-44
2023/09/08 07:55:30;;;;;;;8.40;6.40;;;25.60;52.20;;;;;;5008400;28;20626;-45
2023/09/08 07:57:57;;;;;;;7.33;6.70;;;25.80;51.70;;;;;;5002545;28;20202;-47
2023/09/08 08:00:22;;;;;;;6.60;6.10;;;26.00;51.90;;;;;;5011593;28;20264;-48
2023/09/08 08:02:50;;;;;;;6.80;6.20;;;26.20;51.40;;;;;;5013060;28;20429;-44
2023/09/08 08:05:16;;;;;;;8.17;6.23;;;26.40;50.90;;;;;;5012791;28;20578;-47
2023/09/08 08:07:43;;;;;;;7.83;7.00;;;26.60;50.90;;;;;;5011073;28;20445;-45
2023/09/08 08:10:10;;;;;;;9.03;7.10;;;26.80;50.40;;;;;;5006239;28;21026;-48
2023/09/08 08:12:36;;;;;;;7.17;6.47;;;26.80;50.20;;;;;;5010749;28;20425;-44
2023/09/08 08:15:02;;;;;;;6.63;6.03;;;26.80;50.10;;;;;;4993217;28;20948;-44
2023/09/08 08:17:29;;;;;;;8.43;5.90;;;26.90;50.40;;;;;;5010728;28;20436;-45
2023/09/08 08:19:55;;;;;;;9.07;6.63;;;27.20;50.00;;;;;;5007930;28;20196;-45
2023/09/08 08:22:21;;;;;;;7.30;6.60;;;27.20;49.30;;;;;;5005903;28;20441;-46
2023/09/08 08:24:47;;;;;;;7.60;6.83;;;27.40;49.00;;;;;;5008147;28;20448;-45
2023/09/08 08:27:13;;;;;;;8.13;7.27;;;27.50;49.00;;;;;;5006982;28;20832;-46
2023/09/08 08:29:39;;;;;;;6.80;6.30;;;27.60;48.50;;;;;;5010148;28;20209;-46
2023/09/08 08:32:05;;;;;;;5.93;5.53;;;27.70;48.50;;;;;;5013269;28;20228;-45
2023/09/08 08:34:31;;;;;;;6.10;5.60;;;27.80;48.70;;;;;;5013735;28;20885;-45
2023/09/08 08:36:56;;;;;;;8.80;6.47;;;27.90;48.60;;;;;;5015764;28;20433;-45
2023/09/08 08:39:22;;;;;;;7.87;7.03;;;28.10;48.20;;;;;;5014525;28;20198;-45
2023/09/08 08:41:47;;;;;;;10.30;6.27;;;28.10;48.00;;;;;;5016464;28;20201;-47
2023/09/08 08:44:15;;;;;;;7.00;6.30;;;28.20;47.50;;;;;;5014544;28;20201;-45
2023/09/08 08:46:42;;;;;;;6.50;5.90;;;28.40;47.50;;;;;;5009319;28;20232;-45
2023/09/08 08:49:11;;;;;;;7.20;6.67;;;28.60;47.10;;;;;;5005163;28;20572;-46
2023/09/08 08:51:38;;;;;;;7.43;6.60;;;28.70;46.50;;;;;;5015787;28;20473;-49
2023/09/08 08:54:04;;;;;;;6.77;6.10;;;28.80;46.10;;;;;;5014593;28;20450;-46
2023/09/08 08:56:31;;;;;;;8.90;6.43;;;28.90;46.60;;;;;;5016054;28;20425;-46
2023/09/08 08:58:58;;;;;;;6.47;5.70;;;28.90;46.90;;;;;;5009216;28;20475;-43
2023/09/08 09:01:25;;;;;;;7.27;6.70;;;29.10;46.30;;;;;;5003410;28;20447;-49
2023/09/08 09:03:52;;;;;;;6.20;5.80;;;29.20;46.50;;;;;;5015837;28;20498;-45
2023/09/08 09:06:17;;;;;;;6.67;6.10;;;29.20;46.00;;;;;;5014117;28;20991;-46
2023/09/08 09:08:44;;;;;;;6.83;6.33;;;29.30;45.70;;;;;;5015808;28;20445;-45
2023/09/08 09:11:10;;;;;;;7.40;6.07;;;29.40;45.10;;;;;;5014841;28;20225;-45
2023/09/08 09:13:36;;;;;;;6.30;5.70;;;29.50;44.90;;;;;;5015772;28;20471;-46
2023/09/08 09:16:03;;;;;;;6.20;5.70;;;29.60;44.50;;;;;;5015681;28;20453;-45
2023/09/08 09:18:30;;;;;;;6.70;6.07;;;29.60;45.10;;;;;;5014560;28;20265;-45
2023/09/08 09:20:59;;;;;;;6.37;5.87;;;29.70;45.60;;;;;;5010324;28;20447;-45
2023/09/08 09:23:29;;;;;;;6.33;5.67;;;29.80;45.30;;;;;;5006359;28;20814;-46
2023/09/08 09:25:55;;;;;;;6.73;5.97;;;30.10;45.30;;;;;;5004187;28;20492;-46
2023/09/08 09:28:20;;;;;;;7.60;6.20;;;30.20;44.80;;;;;;5015669;28;20427;-45
2023/09/08 09:30:51;;;;;;;7.23;6.53;;;30.30;44.40;;;;;;5015271;28;20198;-46
2023/09/08 09:33:17;;;;;;;6.83;6.20;;;30.40;44.40;;;;;;5013796;28;20190;-46
2023/09/08 09:35:49;;;;;;;6.73;6.13;;;30.60;43.70;;;;;;5011755;28;20451;-45
2023/09/08 09:38:16;;;;;;;6.40;5.90;;;30.70;43.50;;;;;;5015271;28;20461;-46
2023/09/08 09:40:42;;;;;;;9.23;6.00;;;30.80;44.00;;;;;;5015100;28;20481;-45
2023/09/08 09:43:08;;;;;;;7.57;5.97;;;30.90;43.30;;;;;;5014416;28;20512;-46
2023/09/08 09:45:34;;;;;;;7.60;6.43;;;31.10;42.70;;;;;;5013965;28;20218;-45
2023/09/08 09:48:02;;;;;;;7.17;6.47;;;31.10;42.50;;;;;;5014004;28;20475;-45
2023/09/08 09:50:35;;;;;;;6.37;5.77;;;31.20;42.60;;;;;;5013315;28;20421;-45
2023/09/08 09:53:03;;;;;;;6.93;6.30;;;31.20;42.60;;;;;;5015217;28;20421;-46
2023/09/08 09:55:29;;;;;;;6.50;5.83;;;31.30;41.60;;;;;;5013893;28;20449;-45
2023/09/08 09:57:58;;;;;;;7.20;6.50;;;31.40;42.20;;;;;;5012080;28;20449;-45
2023/09/08 10:00:28;;;;;;;6.37;5.40;;;31.60;42.10;;;;;;5014929;28;20705;-47
2023/09/08 10:02:56;;;;;;;7.50;6.07;;;31.70;42.20;;;;;;5014791;28;20444;-46
2023/09/08 10:05:23;;;;;;;7.07;6.50;;;31.80;41.90;;;;;;5012668;28;20463;-43
2023/09/08 10:07:50;;;;;;;5.47;5.07;;;31.90;41.10;;;;;;5014755;28;20425;-44
2023/09/08 10:10:16;;;;;;;7.70;6.13;;;32.00;41.80;;;;;;5014760;28;20928;-43
2023/09/08 10:12:52;;;;;;;6.40;5.80;;;32.10;41.50;;;;;;5014781;28;20774;-43
2023/09/08 10:15:21;;;;;;;7.50;6.50;;;32.20;40.90;;;;;;5014116;28;20575;-44
2023/09/08 10:17:52;;;;;;;6.10;5.60;;;32.40;41.10;;;;;;5002809;28;20541;-43
2023/09/08 10:20:21;;;;;;;6.13;5.73;;;32.60;40.20;;;;;;5001820;28;20436;-45
2023/09/08 10:22:52;;;;;;;6.83;6.33;;;32.90;39.80;;;;;;5014444;28;20444;-45
2023/09/08 10:25:20;;;;;;;6.00;5.50;;;33.00;38.90;;;;;;5012647;28;20487;-47
2023/09/08 10:27:46;;;;;;;6.53;6.03;;;33.20;39.10;;;;;;5010698;28;20449;-46
2023/09/08 10:30:13;;;;;;;6.90;6.30;;;33.20;39.10;;;;;;5014340;28;20417;-47
2023/09/08 10:32:41;;;;;;;6.33;5.63;;;33.20;39.70;;;;;;5013966;28;20455;-46
2023/09/08 10:35:08;;;;;;;6.40;5.80;;;33.30;39.80;;;;;;5014190;28;20433;-46
2023/09/08 10:37:33;;;;;;;6.57;6.07;;;33.40;40.20;;;;;;5010280;28;20441;-45
2023/09/08 10:40:22;;;;;;;6.20;5.80;;;33.70;39.60;;;;;;5014307;28;20455;-45
2023/09/08 10:42:48;;;;;;;7.10;6.53;;;33.90;39.70;;;;;;5014011;28;20205;-46
2023/09/08 10:45:18;;;;;;;5.80;5.40;;;34.20;39.70;;;;;;5013994;28;20421;-46
2023/09/08 10:47:46;;;;;;;6.40;5.80;;;34.40;38.70;;;;;;5012318;28;20198;-47
2023/09/08 10:50:30;;;;;;;7.13;6.43;;;34.70;37.30;;;;;;5012142;28;20437;-47
2023/09/08 10:53:12;;;;;;;6.10;5.70;;;34.20;36.50;;;;;;5012258;28;20468;-46
2023/09/08 10:55:47;;;;;;;6.80;5.93;;;34.20;37.10;;;;;;5014070;28;20492;-46
2023/09/08 10:58:33;;;;;;;6.60;5.97;;;34.50;36.40;;;;;;5011449;28;20452;-46
2023/09/08 11:01:01;;;;;;;6.57;6.07;;;34.80;36.30;;;;;;5010952;28;20435;-46
2023/09/08 11:03:41;;;;;;;6.47;5.87;;;34.90;36.20;;;;;;5013791;28;20487;-46
2023/09/08 11:06:08;;;;;;;6.23;5.70;;;35.10;35.90;;;;;;5013638;28;20577;-47
2023/09/08 11:08:37;;;;;;;6.70;6.20;;;35.30;34.90;;;;;;5012139;28;20445;-46
2023/09/08 11:11:02;;;;;;;7.00;5.70;;;35.50;34.60;;;;;;5013636;28;20793;-46
2023/09/08 11:13:28;;;;;;;6.77;6.27;;;35.60;34.40;;;;;;5010558;28;20445;-47
2023/09/08 11:15:54;;;;;;;6.63;6.13;;;35.70;34.10;;;;;;4996157;28;20204;-45
2023/09/08 11:18:30;;;;;;;6.07;5.57;;;35.80;33.70;;;;;;5011149;28;20545;-44
2023/09/08 11:20:57;;;;;;;8.37;6.53;;;35.90;34.00;;;;;;5001991;28;20460;-46
2023/09/08 11:23:23;;;;;;;7.07;6.43;;;36.10;34.30;;;;;;5000331;28;20447;-48
2023/09/08 11:25:50;;;;;;;5.80;5.30;;;36.00;33.80;;;;;;5001322;28;20488;-45
2023/09/08 11:28:17;;;;;;;7.83;5.97;;;36.10;34.00;;;;;;5002395;28;21006;-45
2023/09/08 11:30:46;;;;;;;6.27;5.67;;;36.10;33.40;;;;;;5005767;28;20644;-45
2023/09/08 11:33:15;;;;;;;6.80;6.10;;;36.20;33.20;;;;;;5005068;28;20438;-46
2023/09/08 11:35:44;;;;;;;5.80;5.40;;;36.20;33.30;;;;;;5013088;28;20575;-46
2023/09/08 11:38:12;;;;;;;6.83;6.33;;;36.30;33.50;;;;;;5011524;28;20432;-46
2023/09/08 11:40:38;;;;;;;6.97;6.47;;;36.50;33.20;;;;;;5006117;28;20429;-45
2023/09/08 11:43:05;;;;;;;7.27;6.40;;;36.60;33.20;;;;;;5011047;28;20451;-45
2023/09/08 11:45:34;;;;;;;7.50;6.80;;;36.70;33.40;;;;;;5002712;28;20470;-46
2023/09/08 11:47:59;;;;;;;6.77;6.23;;;36.70;33.30;;;;;;5009977;28;20528;-47
2023/09/08 11:50:25;;;;;;;7.00;6.50;;;36.50;33.20;;;;;;5011438;28;20512;-45
2023/09/08 11:52:53;;;;;;;6.90;6.47;;;36.60;33.20;;;;;;5010084;28;20193;-45
2023/09/08 11:55:20;;;;;;;6.17;5.47;;;36.70;33.30;;;;;;5010738;28;20222;-47
2023/09/08 11:57:48;;;;;;;5.97;5.50;;;36.80;33.70;;;;;;5004139;28;20449;-49
2023/09/08 12:00:17;;;;;;;6.53;6.00;;;36.90;34.40;;;;;;5010823;28;20452;-46
2023/09/08 12:02:46;;;;;;;6.50;6.00;;;36.90;34.60;;;;;;5005431;28;20476;-45
2023/09/08 12:05:13;;;;;;;6.63;6.13;;;37.10;34.20;;;;;;5004717;28;20455;-48
2023/09/08 12:07:39;;;;;;;6.37;5.93;;;37.10;33.10;;;;;;5006378;28;20475;-48
2023/09/08 12:10:11;;;;;;;6.73;6.27;;;37.20;32.60;;;;;;5009336;28;20448;-46
2023/09/08 12:12:55;;;;;;;7.30;6.63;;;37.30;32.00;;;;;;5006305;28;20199;-45
2023/09/08 12:15:34;;;;;;;5.83;5.33;;;37.40;32.80;;;;;;5006323;28;20518;-46
2023/09/08 12:18:03;;;;;;;6.87;6.37;;;37.40;32.40;;;;;;5007507;28;20855;-47
2023/09/08 12:20:30;;;;;;;6.07;5.67;;;37.60;32.20;;;;;;5008938;28;20535;-50
2023/09/08 12:23:00;;;;;;;6.30;5.90;;;37.80;32.10;;;;;;5010184;28;20562;-46
2023/09/08 12:25:27;;;;;;;7.07;6.57;;;37.90;31.90;;;;;;5011008;28;20428;-48
2023/09/08 12:27:53;;;;;;;6.47;6.03;;;38.00;31.90;;;;;;5011637;28;20823;-49
2023/09/08 12:30:20;;;;;;;6.73;6.23;;;37.90;31.00;;;;;;5007407;28;20439;-49
2023/09/08 12:32:48;;;;;;;7.30;6.70;;;37.70;31.60;;;;;;5001823;28;20444;-47
2023/09/08 12:35:23;;;;;;;7.23;6.50;;;37.80;31.20;;;;;;5007352;28;20436;-50
2023/09/08 12:38:03;;;;;;;6.80;6.30;;;37.80;30.40;;;;;;5010773;28;20973;-49
2023/09/08 12:40:31;;;;;;;6.07;5.57;;;37.70;31.20;;;;;;4999533;28;20448;-46
2023/09/08 12:43:00;;;;;;;7.73;7.13;;;37.70;32.00;;;;;;5005224;28;20456;-47
2023/09/08 12:45:26;;;;;;;6.87;6.40;;;37.10;32.70;;;;;;5006718;28;20441;-46